sensor_id;sensor_type;location;lat;lon;timestamp;pressure;altitude;pressure_sealevel;temperature;humidity
216;BME280;64590;48.81286795;9.14184224;2023-03-14T00:00:06;96636.28;;;10.61;86.82
216;BME280;64590;48.81286795;9.14184224;2023-03-14T00:02:34;96640.09;;;10.67;86.12
216;BME280;64590;48.81286795;9.14184224;2023-03-14T00:05:01;96633.75;;;10.67;86.25
216;BME280;64590;48.81286795;9.14184224;2023-03-14T00:07:32;96640.34;;;10.73;85.55
216;BME280;64590;48.81286795;9.14184224;2023-03-14T00:10:02;96678.94;;;10.67;86.21
216;BME280;64590;48.81286795;9.14184224;2023-03-14T00:12:30;96651.72;;;10.62;87.13
216;BME280;64590;48.81286795;9.14184224;2023-03-14T00:14:56;96649.09;;;10.71;85.99
216;BME280;64590;48.81286795;9.14184224;2023-03-14T00:17:25;96641.13;;;10.73;86.05
216;BME280;64590;48.81286795;9.14184224;2023-03-14T00:19:52;96640.53;;;10.66;86.09
216;BME280;64590;48.81286795;9.14184224;2023-03-14T00:22:19;96626.47;;;10.57;86.83
216;BME280;64590;48.81286795;9.14184224;2023-03-14T00:24:46;96626.16;;;10.55;86.91
216;BME280;64590;48.81286795;9.14184224;2023-03-14T00:27:13;96626.47;;;10.57;87.10
216;BME280;64590;48.81286795;9.14184224;2023-03-14T00:29:42;96622.41;;;10.78;85.87
216;BME280;64590;48.81286795;9.14184224;2023-03-14T00:32:08;96624.13;;;10.71;85.64
216;BME280;64590;48.81286795;9.14184224;2023-03-14T00:34:35;96633.16;;;10.59;86.20
216;BME280;64590;48.81286795;9.14184224;2023-03-14T00:37:01;96625.97;;;10.78;84.86
216;BME280;64590;48.81286795;9.14184224;2023-03-14T00:39:28;96636.69;;;10.76;84.49
216;BME280;64590;48.81286795;9.14184224;2023-03-14T00:41:56;96625.59;;;10.60;85.09
216;BME280;64590;48.81286795;9.14184224;2023-03-14T00:44:24;96634.53;;;10.51;86.30
216;BME280;64590;48.81286795;9.14184224;2023-03-14T00:46:51;96627.88;;;10.65;85.50
216;BME280;64590;48.81286795;9.14184224;2023-03-14T00:49:18;96618.31;;;10.66;84.98
216;BME280;64590;48.81286795;9.14184224;2023-03-14T00:51:44;96624.94;;;10.56;85.49
216;BME280;64590;48.81286795;9.14184224;2023-03-14T00:54:11;96637.75;;;10.66;84.93
216;BME280;64590;48.81286795;9.14184224;2023-03-14T00:56:38;96638.53;;;10.66;84.40
216;BME280;64590;48.81286795;9.14184224;2023-03-14T00:59:04;96631.75;;;10.67;83.88
216;BME280;64590;48.81286795;9.14184224;2023-03-14T01:01:32;96637.91;;;10.59;84.83
216;BME280;64590;48.81286795;9.14184224;2023-03-14T01:03:58;96638.91;;;10.52;84.79
216;BME280;64590;48.81286795;9.14184224;2023-03-14T01:06:27;96644.63;;;10.61;83.95
216;BME280;64590;48.81286795;9.14184224;2023-03-14T01:08:55;96653.28;;;10.80;83.28
216;BME280;64590;48.81286795;9.14184224;2023-03-14T01:11:23;96641.06;;;10.61;82.97
216;BME280;64590;48.81286795;9.14184224;2023-03-14T01:13:51;96658.28;;;10.68;84.54
216;BME280;64590;48.81286795;9.14184224;2023-03-14T01:16:19;96657.00;;;10.73;83.97
216;BME280;64590;48.81286795;9.14184224;2023-03-14T01:18:47;96652.84;;;10.65;84.57
216;BME280;64590;48.81286795;9.14184224;2023-03-14T01:21:17;96644.34;;;10.56;85.79
216;BME280;64590;48.81286795;9.14184224;2023-03-14T01:23:46;96644.78;;;10.70;85.30
216;BME280;64590;48.81286795;9.14184224;2023-03-14T01:26:15;96617.03;;;10.70;83.67
216;BME280;64590;48.81286795;9.14184224;2023-03-14T01:28:42;96610.25;;;10.71;84.35
216;BME280;64590;48.81286795;9.14184224;2023-03-14T01:31:09;96607.31;;;10.79;84.50
216;BME280;64590;48.81286795;9.14184224;2023-03-14T01:33:37;96603.38;;;10.76;84.42
216;BME280;64590;48.81286795;9.14184224;2023-03-14T01:36:06;96601.06;;;10.74;83.55
216;BME280;64590;48.81286795;9.14184224;2023-03-14T01:38:36;96590.06;;;10.71;82.76
216;BME280;64590;48.81286795;9.14184224;2023-03-14T01:41:06;96582.50;;;10.71;83.92
216;BME280;64590;48.81286795;9.14184224;2023-03-14T01:43:33;96569.75;;;10.74;82.68
216;BME280;64590;48.81286795;9.14184224;2023-03-14T01:49:11;96549.81;;;10.79;82.50
216;BME280;64590;48.81286795;9.14184224;2023-03-14T01:51:46;96546.34;;;10.75;82.29
216;BME280;64590;48.81286795;9.14184224;2023-03-14T01:54:17;96552.56;;;10.79;82.62
216;BME280;64590;48.81286795;9.14184224;2023-03-14T01:56:50;96558.22;;;10.75;82.44
216;BME280;64590;48.81286795;9.14184224;2023-03-14T01:59:18;96566.72;;;10.68;81.84
216;BME280;64590;48.81286795;9.14184224;2023-03-14T02:01:46;96560.53;;;10.77;80.25
216;BME280;64590;48.81286795;9.14184224;2023-03-14T02:04:15;96563.09;;;10.71;80.91
216;BME280;64590;48.81286795;9.14184224;2023-03-14T02:06:54;96562.59;;;10.60;81.46
216;BME280;64590;48.81286795;9.14184224;2023-03-14T02:09:25;96553.13;;;10.58;81.95
216;BME280;64590;48.81286795;9.14184224;2023-03-14T02:11:53;96561.97;;;10.69;80.04
216;BME280;64590;48.81286795;9.14184224;2023-03-14T02:14:38;96554.94;;;10.64;79.96
216;BME280;64590;48.81286795;9.14184224;2023-03-14T02:17:25;96543.34;;;10.53;81.09
216;BME280;64590;48.81286795;9.14184224;2023-03-14T02:20:13;96555.81;;;10.61;80.12
216;BME280;64590;48.81286795;9.14184224;2023-03-14T02:22:53;96545.16;;;10.60;80.12
216;BME280;64590;48.81286795;9.14184224;2023-03-14T02:25:24;96542.47;;;10.56;80.71
216;BME280;64590;48.81286795;9.14184224;2023-03-14T02:27:56;96543.06;;;10.64;79.97
216;BME280;64590;48.81286795;9.14184224;2023-03-14T02:30:25;96524.09;;;10.62;79.88
216;BME280;64590;48.81286795;9.14184224;2023-03-14T02:32:55;96498.09;;;10.56;80.39
216;BME280;64590;48.81286795;9.14184224;2023-03-14T02:35:26;96519.22;;;10.66;79.99
216;BME280;64590;48.81286795;9.14184224;2023-03-14T02:37:57;96516.09;;;10.64;79.96
216;BME280;64590;48.81286795;9.14184224;2023-03-14T02:40:32;96511.63;;;10.54;80.60
216;BME280;64590;48.81286795;9.14184224;2023-03-14T02:43:00;96502.03;;;10.42;81.43
216;BME280;64590;48.81286795;9.14184224;2023-03-14T02:45:41;96512.31;;;10.42;81.46
216;BME280;64590;48.81286795;9.14184224;2023-03-14T02:48:12;96499.50;;;10.48;80.26
216;BME280;64590;48.81286795;9.14184224;2023-03-14T02:50:41;96482.78;;;10.52;80.11
216;BME280;64590;48.81286795;9.14184224;2023-03-14T02:53:08;96499.50;;;10.48;80.94
216;BME280;64590;48.81286795;9.14184224;2023-03-14T02:55:35;96475.16;;;10.39;81.17
216;BME280;64590;48.81286795;9.14184224;2023-03-14T02:58:09;96466.31;;;10.44;80.63
216;BME280;64590;48.81286795;9.14184224;2023-03-14T03:00:35;96479.63;;;10.50;79.90
216;BME280;64590;48.81286795;9.14184224;2023-03-14T03:03:04;96472.94;;;10.34;80.74
216;BME280;64590;48.81286795;9.14184224;2023-03-14T03:05:31;96457.22;;;10.44;80.23
216;BME280;64590;48.81286795;9.14184224;2023-03-14T03:07:59;96456.66;;;10.49;79.54
216;BME280;64590;48.81286795;9.14184224;2023-03-14T03:10:26;96464.41;;;10.41;80.11
216;BME280;64590;48.81286795;9.14184224;2023-03-14T03:12:54;96454.31;;;10.35;79.59
216;BME280;64590;48.81286795;9.14184224;2023-03-14T03:15:26;96442.44;;;10.34;79.96
216;BME280;64590;48.81286795;9.14184224;2023-03-14T03:17:52;96444.34;;;10.50;78.38
216;BME280;64590;48.81286795;9.14184224;2023-03-14T03:20:19;96429.19;;;10.55;78.02
216;BME280;64590;48.81286795;9.14184224;2023-03-14T03:22:46;96417.56;;;10.31;79.00
216;BME280;64590;48.81286795;9.14184224;2023-03-14T03:25:14;96438.00;;;10.37;78.70
216;BME280;64590;48.81286795;9.14184224;2023-03-14T03:27:40;96439.56;;;10.51;77.74
216;BME280;64590;48.81286795;9.14184224;2023-03-14T03:30:09;96430.19;;;10.32;78.04
216;BME280;64590;48.81286795;9.14184224;2023-03-14T03:32:37;96430.88;;;10.36;77.95
216;BME280;64590;48.81286795;9.14184224;2023-03-14T03:35:05;96429.88;;;10.30;78.16
216;BME280;64590;48.81286795;9.14184224;2023-03-14T03:37:36;96425.00;;;10.34;77.96
216;BME280;64590;48.81286795;9.14184224;2023-03-14T03:40:05;96417.56;;;10.31;77.27
216;BME280;64590;48.81286795;9.14184224;2023-03-14T03:42:34;96415.31;;;10.26;78.10
216;BME280;64590;48.81286795;9.14184224;2023-03-14T03:45:03;96399.16;;;10.37;75.99
216;BME280;64590;48.81286795;9.14184224;2023-03-14T03:47:32;96408.91;;;10.29;77.13
216;BME280;64590;48.81286795;9.14184224;2023-03-14T03:49:59;96411.22;;;10.30;77.80
216;BME280;64590;48.81286795;9.14184224;2023-03-14T03:52:26;96402.47;;;10.32;76.69
216;BME280;64590;48.81286795;9.14184224;2023-03-14T03:54:53;96402.59;;;10.41;75.35
216;BME280;64590;48.81286795;9.14184224;2023-03-14T03:57:19;96394.06;;;10.35;75.20
216;BME280;64590;48.81286795;9.14184224;2023-03-14T03:59:46;96401.25;;;10.33;74.73
216;BME280;64590;48.81286795;9.14184224;2023-03-14T04:02:12;96406.22;;;10.25;75.10
216;BME280;64590;48.81286795;9.14184224;2023-03-14T04:04:39;96398.84;;;10.18;74.79
216;BME280;64590;48.81286795;9.14184224;2023-03-14T04:07:07;96403.25;;;10.16;74.76
216;BME280;64590;48.81286795;9.14184224;2023-03-14T04:09:34;96406.38;;;10.34;73.73
216;BME280;64590;48.81286795;9.14184224;2023-03-14T04:12:21;96393.25;;;10.06;75.13
216;BME280;64590;48.81286795;9.14184224;2023-03-14T04:14:55;96394.22;;;9.99;75.92
216;BME280;64590;48.81286795;9.14184224;2023-03-14T04:17:21;96397.94;;;10.09;75.69
216;BME280;64590;48.81286795;9.14184224;2023-03-14T04:19:48;96399.81;;;10.12;75.50
216;BME280;64590;48.81286795;9.14184224;2023-03-14T04:22:18;96397.66;;;10.03;75.04
216;BME280;64590;48.81286795;9.14184224;2023-03-14T04:24:48;96399.56;;;10.06;73.97
216;BME280;64590;48.81286795;9.14184224;2023-03-14T04:27:15;96392.72;;;10.11;74.53
216;BME280;64590;48.81286795;9.14184224;2023-03-14T04:29:43;96390.13;;;10.04;74.60
216;BME280;64590;48.81286795;9.14184224;2023-03-14T04:32:13;96399.16;;;10.08;75.27
216;BME280;64590;48.81286795;9.14184224;2023-03-14T04:34:40;96398.25;;;10.11;73.68
216;BME280;64590;48.81286795;9.14184224;2023-03-14T04:37:07;96386.59;;;10.03;74.49
216;BME280;64590;48.81286795;9.14184224;2023-03-14T04:39:39;96390.25;;;10.00;75.25
216;BME280;64590;48.81286795;9.14184224;2023-03-14T04:42:14;96385.06;;;10.15;74.38
216;BME280;64590;48.81286795;9.14184224;2023-03-14T04:44:40;96384.06;;;10.25;72.64
216;BME280;64590;48.81286795;9.14184224;2023-03-14T04:47:09;96375.13;;;10.17;72.64
216;BME280;64590;48.81286795;9.14184224;2023-03-14T04:49:36;96375.59;;;10.00;74.42
216;BME280;64590;48.81286795;9.14184224;2023-03-14T04:52:05;96368.84;;;10.01;75.56
216;BME280;64590;48.81286795;9.14184224;2023-03-14T04:54:34;96356.69;;;10.11;74.03
216;BME280;64590;48.81286795;9.14184224;2023-03-14T04:57:02;96353.78;;;10.14;72.94
216;BME280;64590;48.81286795;9.14184224;2023-03-14T04:59:31;96358.56;;;10.14;72.88
216;BME280;64590;48.81286795;9.14184224;2023-03-14T05:02:07;96359.13;;;10.09;72.97
216;BME280;64590;48.81286795;9.14184224;2023-03-14T05:04:49;96352.66;;;9.99;74.15
216;BME280;64590;48.81286795;9.14184224;2023-03-14T05:07:40;96357.19;;;10.06;73.20
216;BME280;64590;48.81286795;9.14184224;2023-03-14T05:10:25;96339.94;;;10.14;73.08
216;BME280;64590;48.81286795;9.14184224;2023-03-14T05:13:08;96348.84;;;9.93;74.18
216;BME280;64590;48.81286795;9.14184224;2023-03-14T05:16:04;96336.72;;;10.16;71.77
216;BME280;64590;48.81286795;9.14184224;2023-03-14T05:18:50;96352.91;;;9.88;73.53
216;BME280;64590;48.81286795;9.14184224;2023-03-14T05:21:43;96339.47;;;10.03;73.40
216;BME280;64590;48.81286795;9.14184224;2023-03-14T05:24:20;96350.25;;;9.85;73.82
216;BME280;64590;48.81286795;9.14184224;2023-03-14T05:27:01;96352.44;;;9.77;75.06
216;BME280;64590;48.81286795;9.14184224;2023-03-14T05:29:42;96344.41;;;9.96;74.24
216;BME280;64590;48.81286795;9.14184224;2023-03-14T05:32:35;96329.47;;;10.06;72.86
216;BME280;64590;48.81286795;9.14184224;2023-03-14T05:35:29;96325.84;;;10.09;72.60
216;BME280;64590;48.81286795;9.14184224;2023-03-14T05:38:06;96325.78;;;9.96;72.80
216;BME280;64590;48.81286795;9.14184224;2023-03-14T05:40:34;96317.94;;;10.07;72.97
216;BME280;64590;48.81286795;9.14184224;2023-03-14T05:43:09;96314.97;;;10.14;71.73
216;BME280;64590;48.81286795;9.14184224;2023-03-14T05:45:56;96326.28;;;10.07;71.85
216;BME280;64590;48.81286795;9.14184224;2023-03-14T05:48:25;96328.06;;;10.14;70.40
216;BME280;64590;48.81286795;9.14184224;2023-03-14T05:51:09;96323.47;;;9.95;72.52
216;BME280;64590;48.81286795;9.14184224;2023-03-14T05:53:56;96321.16;;;10.06;72.28
216;BME280;64590;48.81286795;9.14184224;2023-03-14T05:56:41;96317.00;;;9.85;73.74
216;BME280;64590;48.81286795;9.14184224;2023-03-14T05:59:20;96320.19;;;10.00;74.14
216;BME280;64590;48.81286795;9.14184224;2023-03-14T06:02:17;96318.69;;;9.95;73.73
216;BME280;64590;48.81286795;9.14184224;2023-03-14T06:04:54;96325.72;;;10.00;73.76
216;BME280;64590;48.81286795;9.14184224;2023-03-14T06:07:20;96334.16;;;10.09;73.57
216;BME280;64590;48.81286795;9.14184224;2023-03-14T06:09:47;96332.13;;;9.97;73.20
216;BME280;64590;48.81286795;9.14184224;2023-03-14T06:12:17;96329.69;;;9.99;73.41
216;BME280;64590;48.81286795;9.14184224;2023-03-14T06:14:45;96333.72;;;10.10;73.04
216;BME280;64590;48.81286795;9.14184224;2023-03-14T06:17:12;96326.91;;;9.99;74.08
216;BME280;64590;48.81286795;9.14184224;2023-03-14T06:19:48;96337.00;;;9.93;73.99
216;BME280;64590;48.81286795;9.14184224;2023-03-14T06:22:15;96333.03;;;10.06;72.91
216;BME280;64590;48.81286795;9.14184224;2023-03-14T06:24:42;96332.06;;;10.13;73.12
216;BME280;64590;48.81286795;9.14184224;2023-03-14T06:27:09;96321.81;;;9.97;74.10
216;BME280;64590;48.81286795;9.14184224;2023-03-14T06:29:35;96332.31;;;9.89;74.91
216;BME280;64590;48.81286795;9.14184224;2023-03-14T06:32:02;96346.72;;;9.84;75.24
216;BME280;64590;48.81286795;9.14184224;2023-03-14T06:34:29;96340.88;;;9.95;75.56
216;BME280;64590;48.81286795;9.14184224;2023-03-14T06:36:57;96328.22;;;9.94;74.78
216;BME280;64590;48.81286795;9.14184224;2023-03-14T06:39:25;96321.41;;;10.11;73.43
216;BME280;64590;48.81286795;9.14184224;2023-03-14T06:42:00;96317.53;;;10.09;74.10
216;BME280;64590;48.81286795;9.14184224;2023-03-14T06:44:27;96309.75;;;10.04;74.30
216;BME280;64590;48.81286795;9.14184224;2023-03-14T06:46:53;96310.28;;;9.99;74.75
216;BME280;64590;48.81286795;9.14184224;2023-03-14T06:49:20;96312.91;;;10.18;74.16
216;BME280;64590;48.81286795;9.14184224;2023-03-14T06:51:50;96320.09;;;10.16;73.12
216;BME280;64590;48.81286795;9.14184224;2023-03-14T06:54:18;96323.84;;;10.09;73.19
216;BME280;64590;48.81286795;9.14184224;2023-03-14T06:56:46;96315.44;;;10.13;73.65
216;BME280;64590;48.81286795;9.14184224;2023-03-14T06:59:13;96322.41;;;10.46;71.57
216;BME280;64590;48.81286795;9.14184224;2023-03-14T07:01:41;96320.66;;;10.53;70.74
216;BME280;64590;48.81286795;9.14184224;2023-03-14T07:04:10;96323.00;;;10.54;71.30
216;BME280;64590;48.81286795;9.14184224;2023-03-14T07:06:40;96312.75;;;10.51;72.33
216;BME280;64590;48.81286795;9.14184224;2023-03-14T07:09:09;96323.44;;;10.65;69.21
216;BME280;64590;48.81286795;9.14184224;2023-03-14T07:11:41;96316.22;;;10.55;70.73
216;BME280;64590;48.81286795;9.14184224;2023-03-14T07:14:08;96328.97;;;10.53;71.02
216;BME280;64590;48.81286795;9.14184224;2023-03-14T07:16:34;96327.00;;;10.66;69.84
216;BME280;64590;48.81286795;9.14184224;2023-03-14T07:19:01;96336.31;;;10.85;70.94
216;BME280;64590;48.81286795;9.14184224;2023-03-14T07:21:29;96335.88;;;10.73;69.54
216;BME280;64590;48.81286795;9.14184224;2023-03-14T07:24:00;96338.56;;;10.90;70.06
216;BME280;64590;48.81286795;9.14184224;2023-03-14T07:26:26;96347.09;;;11.21;66.85
216;BME280;64590;48.81286795;9.14184224;2023-03-14T07:28:54;96342.22;;;11.12;67.19
216;BME280;64590;48.81286795;9.14184224;2023-03-14T07:31:21;96338.88;;;11.17;67.44
216;BME280;64590;48.81286795;9.14184224;2023-03-14T07:33:48;96328.75;;;11.36;66.05
216;BME280;64590;48.81286795;9.14184224;2023-03-14T07:36:16;96342.63;;;11.36;66.40
216;BME280;64590;48.81286795;9.14184224;2023-03-14T07:38:44;96351.81;;;11.46;66.92
216;BME280;64590;48.81286795;9.14184224;2023-03-14T07:41:25;96354.84;;;11.51;66.13
216;BME280;64590;48.81286795;9.14184224;2023-03-14T07:44:13;96351.22;;;11.64;65.30
216;BME280;64590;48.81286795;9.14184224;2023-03-14T07:46:40;96338.91;;;11.65;66.18
216;BME280;64590;48.81286795;9.14184224;2023-03-14T07:49:06;96335.84;;;11.50;64.99
216;BME280;64590;48.81286795;9.14184224;2023-03-14T07:51:33;96334.06;;;11.56;65.37
216;BME280;64590;48.81286795;9.14184224;2023-03-14T07:53:59;96346.63;;;11.48;65.41
216;BME280;64590;48.81286795;9.14184224;2023-03-14T07:56:26;96349.69;;;11.63;65.17
216;BME280;64590;48.81286795;9.14184224;2023-03-14T07:58:52;96338.16;;;11.64;64.79
216;BME280;64590;48.81286795;9.14184224;2023-03-14T08:01:20;96340.78;;;11.68;65.65
216;BME280;64590;48.81286795;9.14184224;2023-03-14T08:03:47;96347.00;;;11.84;64.65
216;BME280;64590;48.81286795;9.14184224;2023-03-14T08:06:13;96339.75;;;11.87;64.74
216;BME280;64590;48.81286795;9.14184224;2023-03-14T08:08:40;96337.44;;;11.85;64.30
216;BME280;64590;48.81286795;9.14184224;2023-03-14T08:11:07;96328.06;;;11.79;64.09
216;BME280;64590;48.81286795;9.14184224;2023-03-14T08:13:35;96333.50;;;11.96;64.50
216;BME280;64590;48.81286795;9.14184224;2023-03-14T08:16:01;96329.47;;;11.97;63.96
216;BME280;64590;48.81286795;9.14184224;2023-03-14T08:18:30;96332.53;;;12.11;64.60
216;BME280;64590;48.81286795;9.14184224;2023-03-14T08:20:56;96323.09;;;12.31;63.49
216;BME280;64590;48.81286795;9.14184224;2023-03-14T08:23:23;96308.56;;;12.58;62.86
216;BME280;64590;48.81286795;9.14184224;2023-03-14T08:25:50;96328.09;;;12.67;61.83
216;BME280;64590;48.81286795;9.14184224;2023-03-14T08:28:17;96320.56;;;12.77;62.09
216;BME280;64590;48.81286795;9.14184224;2023-03-14T08:30:44;96310.00;;;12.62;60.93
216;BME280;64590;48.81286795;9.14184224;2023-03-14T08:33:11;96337.56;;;12.69;60.59
216;BME280;64590;48.81286795;9.14184224;2023-03-14T08:35:39;96310.16;;;12.37;59.92
216;BME280;64590;48.81286795;9.14184224;2023-03-14T08:38:12;96313.66;;;12.28;60.50
216;BME280;64590;48.81286795;9.14184224;2023-03-14T08:40:39;96320.72;;;12.20;59.54
216;BME280;64590;48.81286795;9.14184224;2023-03-14T08:43:05;96313.00;;;12.24;60.41
216;BME280;64590;48.81286795;9.14184224;2023-03-14T08:45:32;96334.94;;;12.22;59.80
216;BME280;64590;48.81286795;9.14184224;2023-03-14T08:47:58;96331.44;;;12.09;60.30
216;BME280;64590;48.81286795;9.14184224;2023-03-14T08:50:25;96332.78;;;12.04;59.72
216;BME280;64590;48.81286795;9.14184224;2023-03-14T08:52:53;96334.22;;;12.31;60.35
216;BME280;64590;48.81286795;9.14184224;2023-03-14T08:55:20;96337.00;;;12.53;60.14
216;BME280;64590;48.81286795;9.14184224;2023-03-14T08:57:46;96361.38;;;12.70;58.71
216;BME280;64590;48.81286795;9.14184224;2023-03-14T09:00:14;96341.44;;;12.72;58.65
216;BME280;64590;48.81286795;9.14184224;2023-03-14T09:02:41;96345.63;;;12.77;58.87
216;BME280;64590;48.81286795;9.14184224;2023-03-14T09:05:08;96358.97;;;12.82;59.44
216;BME280;64590;48.81286795;9.14184224;2023-03-14T09:07:35;96366.91;;;12.92;58.86
216;BME280;64590;48.81286795;9.14184224;2023-03-14T09:10:04;96370.97;;;13.00;58.94
216;BME280;64590;48.81286795;9.14184224;2023-03-14T09:12:30;96370.56;;;12.80;59.75
216;BME280;64590;48.81286795;9.14184224;2023-03-14T09:14:57;96374.78;;;12.63;60.41
216;BME280;64590;48.81286795;9.14184224;2023-03-14T09:17:23;96395.25;;;12.69;60.47
216;BME280;64590;48.81286795;9.14184224;2023-03-14T09:19:50;96396.53;;;12.55;60.22
216;BME280;64590;48.81286795;9.14184224;2023-03-14T09:22:16;96404.25;;;12.51;62.50
216;BME280;64590;48.81286795;9.14184224;2023-03-14T09:24:43;96410.84;;;12.44;62.30
216;BME280;64590;48.81286795;9.14184224;2023-03-14T09:27:11;96403.78;;;12.53;62.87
216;BME280;64590;48.81286795;9.14184224;2023-03-14T09:29:37;96408.00;;;12.35;63.08
216;BME280;64590;48.81286795;9.14184224;2023-03-14T09:32:04;96404.50;;;12.44;62.74
216;BME280;64590;48.81286795;9.14184224;2023-03-14T09:34:31;96415.19;;;12.45;62.66
216;BME280;64590;48.81286795;9.14184224;2023-03-14T09:36:57;96411.75;;;12.63;62.84
216;BME280;64590;48.81286795;9.14184224;2023-03-14T09:39:24;96415.69;;;12.75;61.93
216;BME280;64590;48.81286795;9.14184224;2023-03-14T09:41:52;96421.41;;;12.71;61.68
216;BME280;64590;48.81286795;9.14184224;2023-03-14T09:44:25;96412.78;;;12.35;62.50
216;BME280;64590;48.81286795;9.14184224;2023-03-14T09:46:54;96408.59;;;12.52;63.42
216;BME280;64590;48.81286795;9.14184224;2023-03-14T09:49:26;96415.00;;;12.62;61.66
216;BME280;64590;48.81286795;9.14184224;2023-03-14T09:51:56;96431.66;;;12.84;61.69
216;BME280;64590;48.81286795;9.14184224;2023-03-14T09:54:30;96415.38;;;12.73;61.40
216;BME280;64590;48.81286795;9.14184224;2023-03-14T09:56:57;96421.06;;;12.48;62.24
216;BME280;64590;48.81286795;9.14184224;2023-03-14T09:59:26;96414.47;;;12.54;61.93
216;BME280;64590;48.81286795;9.14184224;2023-03-14T10:01:56;96400.16;;;12.43;61.30
216;BME280;64590;48.81286795;9.14184224;2023-03-14T10:04:25;96401.97;;;12.37;61.84
216;BME280;64590;48.81286795;9.14184224;2023-03-14T10:06:52;96397.63;;;12.36;62.02
216;BME280;64590;48.81286795;9.14184224;2023-03-14T10:09:21;96393.38;;;12.44;61.13
216;BME280;64590;48.81286795;9.14184224;2023-03-14T10:11:54;96388.09;;;12.68;61.28
216;BME280;64590;48.81286795;9.14184224;2023-03-14T10:14:32;96400.25;;;12.83;60.14
216;BME280;64590;48.81286795;9.14184224;2023-03-14T10:17:10;96386.59;;;12.76;60.16
216;BME280;64590;48.81286795;9.14184224;2023-03-14T10:19:37;96391.97;;;12.92;60.08
216;BME280;64590;48.81286795;9.14184224;2023-03-14T10:22:04;96390.47;;;13.00;59.52
216;BME280;64590;48.81286795;9.14184224;2023-03-14T10:24:33;96381.69;;;12.80;58.53
216;BME280;64590;48.81286795;9.14184224;2023-03-14T10:27:02;96377.69;;;12.81;59.61
216;BME280;64590;48.81286795;9.14184224;2023-03-14T10:29:32;96374.91;;;13.12;58.65
216;BME280;64590;48.81286795;9.14184224;2023-03-14T10:32:02;96371.44;;;13.30;58.45
216;BME280;64590;48.81286795;9.14184224;2023-03-14T10:34:30;96374.25;;;13.08;58.73
216;BME280;64590;48.81286795;9.14184224;2023-03-14T10:36:58;96364.47;;;12.94;59.73
216;BME280;64590;48.81286795;9.14184224;2023-03-14T10:39:28;96375.81;;;13.09;60.27
216;BME280;64590;48.81286795;9.14184224;2023-03-14T10:42:03;96380.31;;;13.16;61.19
216;BME280;64590;48.81286795;9.14184224;2023-03-14T10:44:33;96359.09;;;13.09;60.25
216;BME280;64590;48.81286795;9.14184224;2023-03-14T10:47:02;96383.78;;;13.29;58.33
216;BME280;64590;48.81286795;9.14184224;2023-03-14T10:49:31;96377.31;;;13.32;58.43
216;BME280;64590;48.81286795;9.14184224;2023-03-14T10:52:02;96391.56;;;13.34;58.60
216;BME280;64590;48.81286795;9.14184224;2023-03-14T10:54:30;96404.00;;;13.42;58.51
216;BME280;64590;48.81286795;9.14184224;2023-03-14T10:56:57;96398.34;;;13.02;58.93
216;BME280;64590;48.81286795;9.14184224;2023-03-14T10:59:24;96398.97;;;12.97;59.66
216;BME280;64590;48.81286795;9.14184224;2023-03-14T11:01:57;96409.13;;;12.91;59.56
216;BME280;64590;48.81286795;9.14184224;2023-03-14T11:04:43;96413.28;;;12.64;60.26
216;BME280;64590;48.81286795;9.14184224;2023-03-14T11:07:17;96410.06;;;12.66;60.77
216;BME280;64590;48.81286795;9.14184224;2023-03-14T11:09:50;96419.13;;;12.57;61.56
216;BME280;64590;48.81286795;9.14184224;2023-03-14T11:12:34;96431.47;;;12.56;61.66
216;BME280;64590;48.81286795;9.14184224;2023-03-14T11:15:08;96433.66;;;12.39;62.56
216;BME280;64590;48.81286795;9.14184224;2023-03-14T11:17:46;96440.59;;;12.35;64.07
216;BME280;64590;48.81286795;9.14184224;2023-03-14T11:20:28;96433.50;;;12.34;67.99
216;BME280;64590;48.81286795;9.14184224;2023-03-14T11:23:01;96438.69;;;11.97;69.68
216;BME280;64590;48.81286795;9.14184224;2023-03-14T11:25:32;96436.09;;;11.55;71.37
216;BME280;64590;48.81286795;9.14184224;2023-03-14T11:28:18;96436.09;;;11.55;72.63
216;BME280;64590;48.81286795;9.14184224;2023-03-14T11:30:51;96435.84;;;11.50;73.68
216;BME280;64590;48.81286795;9.14184224;2023-03-14T11:33:22;96441.84;;;11.36;74.64
216;BME280;64590;48.81286795;9.14184224;2023-03-14T11:35:57;96423.84;;;11.27;73.82
216;BME280;64590;48.81286795;9.14184224;2023-03-14T11:38:32;96435.41;;;11.26;72.59
216;BME280;64590;48.81286795;9.14184224;2023-03-14T11:41:01;96442.41;;;11.30;73.10
216;BME280;64590;48.81286795;9.14184224;2023-03-14T11:43:29;96436.97;;;11.27;71.70
216;BME280;64590;48.81286795;9.14184224;2023-03-14T11:46:03;96454.41;;;11.27;73.99
216;BME280;64590;48.81286795;9.14184224;2023-03-14T11:48:36;96446.50;;;11.13;73.00
216;BME280;64590;48.81286795;9.14184224;2023-03-14T11:51:11;96459.06;;;11.18;71.56
216;BME280;64590;48.81286795;9.14184224;2023-03-14T11:53:47;96457.84;;;11.31;73.78
216;BME280;64590;48.81286795;9.14184224;2023-03-14T11:56:19;96454.41;;;11.15;74.19
216;BME280;64590;48.81286795;9.14184224;2023-03-14T11:58:55;96470.25;;;11.01;74.98
216;BME280;64590;48.81286795;9.14184224;2023-03-14T12:01:29;96476.16;;;11.03;75.56
216;BME280;64590;48.81286795;9.14184224;2023-03-14T12:04:05;96484.16;;;11.27;73.99